createdAt,value
2018-01-13T00:01:21.198Z,183.33
2018-01-13T00:03:50.068Z,159.37
2018-01-13T00:06:19.698Z,198.97
2018-01-13T00:08:48.623Z,319.37
2018-01-13T00:11:17.431Z,181.37
2018-01-13T00:13:47.070Z,150.40
2018-01-13T00:16:15.917Z,155.43
2018-01-13T00:18:45.561Z,188.13
2018-01-13T00:21:14.399Z,159.00
2018-01-13T00:23:43.250Z,148.63
2018-01-13T00:26:12.087Z,155.53
2018-01-13T00:28:40.933Z,176.07
2018-01-13T00:31:09.785Z,198.20
2018-01-13T00:33:39.399Z,180.90
2018-01-13T00:36:09.018Z,158.93
2018-01-13T00:38:38.003Z,163.70
2018-01-13T00:41:07.601Z,145.03
2018-01-13T00:43:37.233Z,157.50
2018-01-13T00:46:06.100Z,183.37
2018-01-13T00:48:35.726Z,196.13
2018-01-13T00:51:04.580Z,146.97
2018-01-13T00:53:33.426Z,313.17
2018-01-13T00:56:02.286Z,216.13
2018-01-13T00:58:31.121Z,180.73
2018-01-13T01:00:59.966Z,283.43
2018-01-13T01:03:28.810Z,211.70
2018-01-13T01:05:58.448Z,240.37
2018-01-13T01:08:27.267Z,182.30
2018-01-13T01:10:56.131Z,231.30
2018-01-13T01:13:24.998Z,153.67
2018-01-13T01:15:54.612Z,149.97
2018-01-13T01:18:23.441Z,267.53
2018-01-13T01:20:52.290Z,154.90
2018-01-13T01:23:21.149Z,168.07
2018-01-13T01:25:50.012Z,330.03
2018-01-13T01:28:18.841Z,208.87
2018-01-13T01:30:48.512Z,270.07
2018-01-13T01:33:17.352Z,235.50
2018-01-13T01:35:46.978Z,207.13
2018-01-13T01:38:15.837Z,208.43
2018-01-13T01:40:45.567Z,310.50
2018-01-13T01:43:15.186Z,214.20
2018-01-13T01:45:44.033Z,326.03
2018-01-13T01:48:25.574Z,184.23
2018-01-13T01:50:54.880Z,215.67
2018-01-13T01:53:23.731Z,254.50
2018-01-13T01:55:52.569Z,195.97
2018-01-13T01:58:21.422Z,203.83
2018-01-13T02:00:50.309Z,256.20
2018-01-13T02:03:19.922Z,230.50
2018-01-13T02:05:48.769Z,180.77
2018-01-13T02:08:18.404Z,289.13
2018-01-13T02:10:47.251Z,271.83
2018-01-13T02:13:16.098Z,180.83
2018-01-13T02:15:44.941Z,147.77
2018-01-13T02:18:14.560Z,206.50
2018-01-13T02:20:44.162Z,155.07
2018-01-13T02:23:13.790Z,161.03
2018-01-13T02:25:42.639Z,229.27
2018-01-13T02:28:12.319Z,209.50
2018-01-13T02:30:41.162Z,220.07
2018-01-13T02:33:12.943Z,202.63
2018-01-13T02:35:41.797Z,232.53
2018-01-13T02:38:11.397Z,130.30
2018-01-13T02:40:41.536Z,251.07
2018-01-13T02:43:11.160Z,163.30
2018-01-13T02:45:40.020Z,171.90
2018-01-13T02:48:08.850Z,175.70
2018-01-13T02:50:37.930Z,227.27
2018-01-13T02:53:06.800Z,124.00
2018-01-13T02:55:36.409Z,123.57
2018-01-13T02:58:05.324Z,140.47
2018-01-13T03:00:34.127Z,301.50
2018-01-13T03:03:02.971Z,315.33
2018-01-13T03:05:31.802Z,190.33
2018-01-13T03:08:01.434Z,144.90
2018-01-13T03:10:30.370Z,157.20
2018-01-13T03:12:59.212Z,132.23
2018-01-13T03:15:28.058Z,115.83
2018-01-13T03:17:56.925Z,198.77
2018-01-13T03:20:25.757Z,145.23
2018-01-13T03:22:55.398Z,158.03
2018-01-13T03:25:24.279Z,189.10
2018-01-13T03:27:53.134Z,255.57
2018-01-13T03:30:22.763Z,149.93
2018-01-13T03:32:52.382Z,140.87
2018-01-13T03:35:21.250Z,217.33
2018-01-13T03:37:50.892Z,159.27
2018-01-13T03:40:19.725Z,123.40
2018-01-13T03:42:48.581Z,124.40
2018-01-13T03:45:17.426Z,134.93
2018-01-13T03:47:46.274Z,116.73
2018-01-13T03:50:15.134Z,110.13
2018-01-13T03:52:44.020Z,107.97
2018-01-13T03:55:14.526Z,137.83
2018-01-13T03:57:43.820Z,133.10
2018-01-13T04:00:12.674Z,117.30
2018-01-13T04:02:41.515Z,219.60
2018-01-13T04:05:10.373Z,162.57
2018-01-13T04:07:39.225Z,159.63
2018-01-13T04:10:08.853Z,117.43
2018-01-13T04:12:37.747Z,113.33
2018-01-13T04:15:06.612Z,112.23
2018-01-13T04:17:36.262Z,93.60
2018-01-13T04:20:05.136Z,98.47
2018-01-13T04:22:34.756Z,104.87
2018-01-13T04:25:03.592Z,101.83
2018-01-13T04:27:32.450Z,112.37
2018-01-13T04:30:01.291Z,137.70
2018-01-13T04:32:30.935Z,169.73
2018-01-13T04:35:00.546Z,143.73
2018-01-13T04:37:29.431Z,150.27
2018-01-13T04:39:58.287Z,160.13
2018-01-13T04:42:27.925Z,207.87
2018-01-13T04:44:56.781Z,274.73
2018-01-13T04:47:26.400Z,181.63
2018-01-13T04:49:56.006Z,227.83
2018-01-13T04:52:25.642Z,186.90
2018-01-13T04:54:54.493Z,211.93
2018-01-13T04:57:24.119Z,157.63
2018-01-13T04:59:52.993Z,252.97
2018-01-13T05:02:22.606Z,241.60
2018-01-13T05:04:52.232Z,143.33
2018-01-13T05:07:21.092Z,270.47
2018-01-13T05:09:50.837Z,173.17
2018-01-13T05:12:19.681Z,199.00
2018-01-13T05:14:49.285Z,194.83
2018-01-13T05:17:18.140Z,258.87
2018-01-13T05:19:47.009Z,115.33
2018-01-13T05:22:15.866Z,107.97
2018-01-13T05:24:45.470Z,162.73
2018-01-13T05:27:15.100Z,123.53
2018-01-13T05:29:44.721Z,116.30
2018-01-13T05:32:13.585Z,154.87
2018-01-13T05:34:43.188Z,93.13
2018-01-13T05:37:12.801Z,122.03
2018-01-13T05:39:42.409Z,138.77
2018-01-13T05:42:12.040Z,145.20
2018-01-13T05:44:40.890Z,113.33
2018-01-13T05:47:09.744Z,89.43
2018-01-13T05:49:38.588Z,110.07
2018-01-13T05:52:08.205Z,115.90
2018-01-13T05:54:37.161Z,72.40
2018-01-13T05:57:05.999Z,86.70
2018-01-13T05:59:36.339Z,87.53
2018-01-13T06:02:05.971Z,101.77
2018-01-13T06:04:34.827Z,114.30
2018-01-13T06:07:04.476Z,77.53
2018-01-13T06:09:33.315Z,107.40
2018-01-13T06:12:02.173Z,90.37
2018-01-13T06:14:31.014Z,115.37
2018-01-13T06:17:00.641Z,146.13
2018-01-13T06:19:29.497Z,162.40
2018-01-13T06:21:59.138Z,132.63
2018-01-13T06:24:27.994Z,78.17
2018-01-13T06:26:57.603Z,91.90
2018-01-13T06:29:27.228Z,85.00
2018-01-13T06:31:56.870Z,161.93
2018-01-13T06:34:25.724Z,116.13
2018-01-13T06:36:55.350Z,69.23
2018-01-13T06:39:24.202Z,156.00
2018-01-13T06:41:53.832Z,78.07
2018-01-13T06:44:23.455Z,80.03
2018-01-13T06:46:52.322Z,109.83
2018-01-13T06:49:22.117Z,67.50
2018-01-13T06:51:50.942Z,60.70
2018-01-13T06:54:20.734Z,68.40
2018-01-13T06:56:50.365Z,56.40
2018-01-13T06:59:19.200Z,67.13
2018-01-13T07:01:48.824Z,59.27
2018-01-13T07:04:17.731Z,79.47
2018-01-13T07:06:46.578Z,53.03
2018-01-13T07:09:16.202Z,50.77
2018-01-13T07:11:45.110Z,42.90
2018-01-13T07:14:14.722Z,42.50
2018-01-13T07:16:43.624Z,40.87
2018-01-13T07:19:13.177Z,42.27
2018-01-13T07:21:42.055Z,46.03
2018-01-13T07:24:10.893Z,41.00
2018-01-13T07:26:39.782Z,42.87
2018-01-13T07:29:08.601Z,39.87
2018-01-13T07:31:37.464Z,43.77
2018-01-13T07:34:06.302Z,45.30
2018-01-13T07:36:35.140Z,41.10
2018-01-13T07:39:04.836Z,39.63
2018-01-13T07:41:34.430Z,42.37
2018-01-13T07:44:04.041Z,42.47
2018-01-13T07:46:32.922Z,46.03
2018-01-13T07:49:01.744Z,49.30
2018-01-13T07:51:30.789Z,44.97
2018-01-13T07:53:59.650Z,38.67
2018-01-13T07:56:28.495Z,44.70
2018-01-13T07:58:58.706Z,43.90
2018-01-13T08:01:27.545Z,42.23
2018-01-13T08:03:56.390Z,44.73
2018-01-13T08:06:25.242Z,42.33
2018-01-13T08:08:55.948Z,47.57
2018-01-13T08:11:24.793Z,43.70
2018-01-13T08:13:54.419Z,42.83
2018-01-13T08:16:23.267Z,41.27
2018-01-13T08:18:52.757Z,46.43
2018-01-13T08:21:21.610Z,47.33
2018-01-13T08:23:50.426Z,55.77
2018-01-13T08:26:19.399Z,54.80
2018-01-13T08:28:48.226Z,40.23
2018-01-13T08:31:17.870Z,46.07
2018-01-13T08:33:46.911Z,44.37
2018-01-13T08:36:15.717Z,44.50
2018-01-13T08:38:45.317Z,45.47
2018-01-13T08:41:14.934Z,44.23
2018-01-13T08:43:44.549Z,49.73
2018-01-13T08:46:14.209Z,47.93
2018-01-13T08:48:43.034Z,50.73
2018-01-13T08:51:12.659Z,44.27
2018-01-13T08:53:41.489Z,44.10
2018-01-13T08:56:10.337Z,45.10
2018-01-13T08:58:39.190Z,45.17
2018-01-13T09:01:08.153Z,48.27
2018-01-13T09:03:37.776Z,47.07
2018-01-13T09:06:06.618Z,46.17
2018-01-13T09:08:36.229Z,42.10
2018-01-13T09:11:05.861Z,41.73
2018-01-13T09:13:34.708Z,47.67
2018-01-13T09:16:03.544Z,43.13
2018-01-13T09:18:32.397Z,40.90
2018-01-13T09:21:01.999Z,41.70
2018-01-13T09:23:31.079Z,47.13
2018-01-13T09:26:00.853Z,41.90
2018-01-13T09:28:29.729Z,39.37
2018-01-13T09:30:59.851Z,43.10
2018-01-13T09:33:28.702Z,40.50
2018-01-13T09:35:58.306Z,41.47
2018-01-13T09:38:27.927Z,41.83
2018-01-13T09:40:57.530Z,39.50
2018-01-13T09:43:27.170Z,34.10
2018-01-13T09:45:56.031Z,36.03
2018-01-13T09:48:25.642Z,34.37
2018-01-13T09:50:55.265Z,37.97
2018-01-13T09:53:24.101Z,34.80
2018-01-13T09:55:52.939Z,36.43
2018-01-13T09:58:21.802Z,36.87
2018-01-13T10:00:51.043Z,37.43
2018-01-13T10:03:20.220Z,32.70
2018-01-13T10:05:49.839Z,38.17
2018-01-13T10:08:18.671Z,30.90
2018-01-13T10:10:47.513Z,35.83
2018-01-13T10:13:16.361Z,34.67
2018-01-13T10:15:45.251Z,30.77
2018-01-13T10:18:14.071Z,31.57
2018-01-13T10:20:43.659Z,31.90
2018-01-13T10:23:13.275Z,29.40
2018-01-13T10:25:42.875Z,31.63
2018-01-13T10:28:12.517Z,26.70
2018-01-13T10:30:41.375Z,27.20
2018-01-13T10:33:14.172Z,23.17
2018-01-13T10:35:46.815Z,27.90
2018-01-13T10:38:17.233Z,28.20
2018-01-13T10:40:46.078Z,28.00
2018-01-13T10:43:14.966Z,25.60
2018-01-13T10:45:43.815Z,35.10
2018-01-13T10:48:12.686Z,22.00
2018-01-13T10:50:41.532Z,21.17
2018-01-13T10:53:10.425Z,19.60
2018-01-13T10:55:39.275Z,21.57
2018-01-13T10:58:08.937Z,21.53
2018-01-13T11:00:38.322Z,20.30
2018-01-13T11:03:07.181Z,17.87
2018-01-13T11:05:36.222Z,18.30
2018-01-13T11:08:05.038Z,16.87
2018-01-13T11:10:35.281Z,14.90
2018-01-13T11:13:04.154Z,18.10
2018-01-13T11:15:34.218Z,14.17
2018-01-13T11:18:03.084Z,15.70
2018-01-13T11:20:31.942Z,17.30
2018-01-13T11:23:01.559Z,17.60
2018-01-13T11:25:31.241Z,16.17
2018-01-13T11:28:00.059Z,16.33
2018-01-13T11:30:29.848Z,14.93
2018-01-13T11:32:58.712Z,13.93
2018-01-13T11:35:27.566Z,19.73
2018-01-13T11:37:56.444Z,13.10
2018-01-13T11:40:26.030Z,14.53
2018-01-13T11:42:56.280Z,14.57
2018-01-13T11:45:25.129Z,14.53
2018-01-13T11:47:54.008Z,14.10
2018-01-13T11:50:22.869Z,12.43
2018-01-13T11:52:51.746Z,13.13
2018-01-13T11:55:20.718Z,15.40
2018-01-13T11:57:50.367Z,14.17
2018-01-13T12:00:19.186Z,15.00
2018-01-13T12:02:48.830Z,14.83
2018-01-13T12:05:17.683Z,11.37
2018-01-13T12:07:47.337Z,14.90
2018-01-13T12:10:16.177Z,15.07
2018-01-13T12:12:46.993Z,12.40
2018-01-13T12:15:15.838Z,13.70
2018-01-13T12:17:44.688Z,16.50
2018-01-13T12:20:14.303Z,17.30
2018-01-13T12:22:43.921Z,15.60
2018-01-13T12:25:12.791Z,12.20
2018-01-13T12:27:42.406Z,13.30
2018-01-13T12:30:12.042Z,15.30
2018-01-13T12:32:41.472Z,14.40
2018-01-13T12:35:10.339Z,12.33
2018-01-13T12:37:39.187Z,13.63
2018-01-13T12:40:08.848Z,11.23
2018-01-13T12:42:38.056Z,12.90
2018-01-13T12:45:06.906Z,11.50
2018-01-13T12:47:35.888Z,15.80
2018-01-13T12:50:05.507Z,17.53
2018-01-13T12:52:34.706Z,14.30
2018-01-13T12:55:04.304Z,14.07
2018-01-13T12:57:33.172Z,15.37
2018-01-13T13:00:02.059Z,20.00
2018-01-13T13:02:30.909Z,13.40
2018-01-13T13:04:59.785Z,13.20
2018-01-13T13:07:29.390Z,14.63
2018-01-13T13:09:59.570Z,13.50
2018-01-13T13:12:28.440Z,15.00
2018-01-13T13:14:58.370Z,14.80
2018-01-13T13:17:27.221Z,13.97
2018-01-13T13:19:57.023Z,17.07
2018-01-13T13:22:25.836Z,15.40
2018-01-13T13:24:54.703Z,12.70
2018-01-13T13:27:23.910Z,12.97
2018-01-13T13:29:52.816Z,19.53
2018-01-13T13:32:22.441Z,15.60
2018-01-13T13:34:51.308Z,14.97
2018-01-13T13:37:20.185Z,18.20
2018-01-13T13:39:49.069Z,15.47
2018-01-13T13:42:18.682Z,20.73
2018-01-13T13:44:48.384Z,18.33
2018-01-13T13:47:18.017Z,14.60
2018-01-13T13:49:46.867Z,14.17
2018-01-13T13:52:15.715Z,13.83
2018-01-13T13:54:44.565Z,13.57
2018-01-13T13:57:14.216Z,15.60
2018-01-13T13:59:43.059Z,13.90
2018-01-13T14:02:12.696Z,13.40
2018-01-13T14:04:42.319Z,14.37
2018-01-13T14:07:11.427Z,15.20
2018-01-13T14:09:46.364Z,15.00
2018-01-13T14:12:15.345Z,15.03
2018-01-13T14:14:44.288Z,13.50
2018-01-13T14:17:13.130Z,13.47
2018-01-13T14:19:42.066Z,13.90
2018-01-13T14:22:10.909Z,15.40
2018-01-13T14:24:39.792Z,13.83
2018-01-13T14:27:08.637Z,13.50
2018-01-13T14:29:37.496Z,13.17
2018-01-13T14:32:07.085Z,15.07
2018-01-13T14:34:35.930Z,12.27
2018-01-13T14:37:04.763Z,13.47
2018-01-13T14:39:33.725Z,12.73
2018-01-13T14:42:02.559Z,12.40
2018-01-13T14:44:32.039Z,16.30
2018-01-13T14:47:00.945Z,16.70
2018-01-13T14:49:30.077Z,13.83
2018-01-13T14:51:59.719Z,15.90
2018-01-13T14:54:29.327Z,18.20
2018-01-13T14:56:58.946Z,14.83
2018-01-13T14:59:27.815Z,14.97
2018-01-13T15:01:57.430Z,12.93
2018-01-13T15:04:26.326Z,14.97
2018-01-13T15:06:55.199Z,13.77
2018-01-13T15:09:24.063Z,14.07
2018-01-13T15:11:53.670Z,15.20
2018-01-13T15:14:23.296Z,15.00
2018-01-13T15:16:52.159Z,17.53
2018-01-13T15:19:21.848Z,18.20
2018-01-13T15:21:50.730Z,20.20
2018-01-13T15:24:19.576Z,18.63
2018-01-13T15:26:48.443Z,17.23
2018-01-13T15:29:17.330Z,19.53
2018-01-13T15:31:46.974Z,25.03
2018-01-13T15:34:15.815Z,17.57
2018-01-13T15:36:45.447Z,18.53
2018-01-13T15:39:15.074Z,19.17
2018-01-13T15:41:44.639Z,19.93
2018-01-13T15:44:14.252Z,26.30
2018-01-13T15:46:43.870Z,27.63
2018-01-13T15:49:12.726Z,30.63
2018-01-13T15:51:41.569Z,28.90
2018-01-13T15:54:11.287Z,23.33
2018-01-13T15:56:40.082Z,26.50
2018-01-13T15:59:08.941Z,25.30
2018-01-13T16:01:38.547Z,25.00
2018-01-13T16:04:07.458Z,21.40
2018-01-13T16:06:36.573Z,19.83
2018-01-13T16:09:06.179Z,16.53
2018-01-13T16:11:35.826Z,15.30
2018-01-13T16:14:04.690Z,14.40
2018-01-13T16:16:34.377Z,14.17
2018-01-13T16:19:03.316Z,16.97
2018-01-13T16:21:32.173Z,12.43
2018-01-13T16:24:01.771Z,27.30
2018-01-13T16:26:31.394Z,15.60
2018-01-13T16:29:01.031Z,16.30
2018-01-13T16:31:29.885Z,16.80
2018-01-13T16:33:59.510Z,17.50
2018-01-13T16:36:29.237Z,20.03
2018-01-13T16:38:58.089Z,15.83
2018-01-13T16:41:27.718Z,14.97
2018-01-13T16:43:56.567Z,16.10
2018-01-13T16:46:25.430Z,16.67
2018-01-13T16:48:54.282Z,16.63
2018-01-13T16:51:23.877Z,18.00
2018-01-13T16:53:53.511Z,18.93
2018-01-13T16:56:22.334Z,17.07
2018-01-13T16:58:51.182Z,17.30
2018-01-13T17:01:20.042Z,16.80
2018-01-13T17:03:48.874Z,17.97
2018-01-13T17:06:17.894Z,17.53
2018-01-13T17:08:48.272Z,18.20
2018-01-13T17:11:17.098Z,17.37
2018-01-13T17:13:45.948Z,17.17
2018-01-13T17:16:14.814Z,17.73
2018-01-13T17:18:44.116Z,19.20
2018-01-13T17:21:12.974Z,20.67
2018-01-13T17:23:41.844Z,19.33
2018-01-13T17:26:10.702Z,18.40
2018-01-13T17:28:39.572Z,16.33
2018-01-13T17:31:10.087Z,23.47
2018-01-13T17:33:39.702Z,18.23
2018-01-13T17:36:09.314Z,18.70
2018-01-13T17:38:38.943Z,22.20
2018-01-13T17:41:07.802Z,19.57
2018-01-13T17:43:37.950Z,20.33
2018-01-13T17:46:06.830Z,24.70
2018-01-13T17:48:36.441Z,20.33
2018-01-13T17:51:05.298Z,22.10
2018-01-13T17:53:34.921Z,19.83
2018-01-13T17:56:04.557Z,19.23
2018-01-13T17:58:33.366Z,22.60
2018-01-13T18:01:02.263Z,19.73
2018-01-13T18:03:31.126Z,21.10
2018-01-13T18:05:59.965Z,18.57
2018-01-13T18:08:28.845Z,20.60
2018-01-13T18:10:57.682Z,22.57
2018-01-13T18:13:28.023Z,20.73
2018-01-13T18:15:57.655Z,21.00
2018-01-13T18:18:26.516Z,21.70
2018-01-13T18:20:56.120Z,23.33
2018-01-13T18:23:26.448Z,19.73
2018-01-13T18:25:56.080Z,19.47
2018-01-13T18:28:24.959Z,24.90
2018-01-13T18:30:53.835Z,24.63
2018-01-13T18:33:23.581Z,25.20
2018-01-13T18:35:52.464Z,24.57
2018-01-13T18:38:21.318Z,23.10
2018-01-13T18:40:50.923Z,29.23
2018-01-13T18:43:20.541Z,25.67
2018-01-13T18:45:50.175Z,22.60
2018-01-13T18:48:19.015Z,23.83
2018-01-13T18:50:48.060Z,22.67
2018-01-13T18:53:16.908Z,20.30
2018-01-13T18:55:45.761Z,26.33
2018-01-13T18:58:15.726Z,27.50
2018-01-13T19:00:45.481Z,24.30
2018-01-13T19:03:14.352Z,25.80
2018-01-13T19:05:43.215Z,25.70
2018-01-13T19:08:12.835Z,22.67
2018-01-13T19:10:42.432Z,26.40
2018-01-13T19:13:12.071Z,25.07
2018-01-13T19:15:40.938Z,22.73
2018-01-13T19:18:09.810Z,27.57
2018-01-13T19:20:39.423Z,26.13
2018-01-13T19:23:09.058Z,23.50
2018-01-13T19:25:37.935Z,28.63
2018-01-13T19:28:06.795Z,27.10
2018-01-13T19:30:35.641Z,25.67
2018-01-13T19:33:04.518Z,26.43
2018-01-13T19:35:33.361Z,26.93
2018-01-13T19:38:03.425Z,29.13
2018-01-13T19:40:32.319Z,26.50
2018-01-13T19:43:02.061Z,26.83
2018-01-13T19:45:30.906Z,31.63
2018-01-13T19:47:59.750Z,25.50
2018-01-13T19:50:28.794Z,23.57
2018-01-13T19:52:57.622Z,22.67
2018-01-13T19:55:26.477Z,25.53
2018-01-13T19:57:56.091Z,24.83
2018-01-13T20:00:24.948Z,27.80
2018-01-13T20:02:54.575Z,28.87
2018-01-13T20:05:23.423Z,22.73
2018-01-13T20:07:52.298Z,25.77
2018-01-13T20:10:21.135Z,28.43
2018-01-13T20:12:50.742Z,30.90
2018-01-13T20:15:20.402Z,32.70
2018-01-13T20:17:49.275Z,31.27
2018-01-13T20:20:18.103Z,33.33
2018-01-13T20:22:46.964Z,28.73
2018-01-13T20:25:15.787Z,29.30
2018-01-13T20:27:44.622Z,34.90
2018-01-13T20:30:13.505Z,38.37
2018-01-13T20:32:43.098Z,32.87
2018-01-13T20:35:12.747Z,36.03
2018-01-13T20:37:41.599Z,33.30
2018-01-13T20:40:11.240Z,35.60
2018-01-13T20:42:40.115Z,33.73
2018-01-13T20:45:08.971Z,36.57
2018-01-13T20:47:38.595Z,40.00
2018-01-13T20:50:08.252Z,37.30
2018-01-13T20:52:37.095Z,38.23
2018-01-13T20:55:06.765Z,36.20
2018-01-13T20:57:36.537Z,38.13
2018-01-13T21:00:05.390Z,37.77
2018-01-13T21:02:35.054Z,36.47
2018-01-13T21:05:03.943Z,38.60
2018-01-13T21:07:32.783Z,39.90
2018-01-13T21:10:01.639Z,36.43
2018-01-13T21:12:30.486Z,40.90
2018-01-13T21:15:00.966Z,37.30
2018-01-13T21:17:29.795Z,33.87
2018-01-13T21:19:58.648Z,35.30
2018-01-13T21:22:27.650Z,35.47
2018-01-13T21:24:56.513Z,34.03
2018-01-13T21:27:26.314Z,34.80
2018-01-13T21:29:55.202Z,36.33
2018-01-13T21:32:24.842Z,37.83
2018-01-13T21:34:53.699Z,37.23
2018-01-13T21:37:22.572Z,37.87
2018-01-13T21:39:52.312Z,34.23
2018-01-13T21:42:21.145Z,36.80
2018-01-13T21:44:49.990Z,38.87
2018-01-13T21:47:18.894Z,37.53
2018-01-13T21:49:47.748Z,36.53
2018-01-13T21:52:17.382Z,33.73
2018-01-13T21:54:46.294Z,35.10
2018-01-13T21:57:15.145Z,37.87
2018-01-13T21:59:44.772Z,37.37
2018-01-13T22:02:13.618Z,36.30
2018-01-13T22:04:43.259Z,34.00
2018-01-13T22:07:12.102Z,32.50
2018-01-13T22:09:40.975Z,36.40
2018-01-13T22:12:10.595Z,38.13
2018-01-13T22:14:39.462Z,30.97
2018-01-13T22:17:09.108Z,35.07
2018-01-13T22:19:37.962Z,31.43
2018-01-13T22:22:07.648Z,35.57
2018-01-13T22:24:36.455Z,35.37
2018-01-13T22:27:06.098Z,34.33
2018-01-13T22:29:35.713Z,34.20
2018-01-13T22:32:04.573Z,34.90
2018-01-13T22:34:34.203Z,34.10
2018-01-13T22:37:03.100Z,32.47
2018-01-13T22:39:31.956Z,34.90
2018-01-13T22:42:01.568Z,40.50
2018-01-13T22:44:31.195Z,33.73
2018-01-13T22:47:00.817Z,36.77
2018-01-13T22:49:29.691Z,37.83
2018-01-13T22:51:58.545Z,37.80
2018-01-13T22:54:28.171Z,35.90
2018-01-13T22:56:57.796Z,39.97
2018-01-13T22:59:27.189Z,36.57
2018-01-13T23:01:56.806Z,34.47
2018-01-13T23:04:25.646Z,35.83
2018-01-13T23:06:54.498Z,44.87
2018-01-13T23:09:24.107Z,34.67
2018-01-13T23:11:53.722Z,36.37
2018-01-13T23:14:22.564Z,34.27
2018-01-13T23:16:52.154Z,41.80
2018-01-13T23:19:21.003Z,36.70
2018-01-13T23:21:49.853Z,36.47
2018-01-13T23:24:19.474Z,38.03
2018-01-13T23:26:48.950Z,34.73
2018-01-13T23:29:17.805Z,38.40
2018-01-13T23:31:46.647Z,32.37
2018-01-13T23:34:16.270Z,39.20
2018-01-13T23:36:45.134Z,33.33
2018-01-13T23:39:14.021Z,37.20
2018-01-13T23:41:42.859Z,31.57
2018-01-13T23:44:11.751Z,32.60
2018-01-13T23:46:40.571Z,35.40
2018-01-13T23:49:09.776Z,34.03
2018-01-13T23:51:38.595Z,31.70
2018-01-13T23:54:08.241Z,30.43
2018-01-13T23:56:37.114Z,30.20
2018-01-13T23:59:05.963Z,35.10
